Time,TemperatureF,DewpointF,PressureIn,WindDirection,WindDirectionDegrees,WindSpeedMPH,WindSpeedGustMPH,Humidity,HourlyPrecipIn,Conditions,Clouds,dailyrainin,SoftwareType,DateUTC
2013-06-02 00:00:00,59.2,58.1,29.64,East,87,0.0,0.0,96,0.00,,---,0.01,VWS V14.01,2013-06-02 04:00:00,
2013-06-02 00:01:00,59.2,58.1,29.64,East,87,0.0,0.0,96,0.00,,---,0.00,VWS V14.01,2013-06-02 04:01:00,
2013-06-02 00:06:00,59.3,58.2,29.64,SSE,167,0.0,0.0,96,0.00,,---,0.00,VWS V14.01,2013-06-02 04:06:00,
2013-06-02 00:11:00,59.5,58.1,29.64,SSE,167,0.0,0.0,95,0.00,,---,0.00,VWS V14.01,2013-06-02 04:11:00,
2013-06-02 00:16:00,59.5,58.1,29.64,WSW,250,0.0,0.0,95,0.00,,---,0.00,VWS V14.01,2013-06-02 04:16:00,
2013-06-02 00:21:00,59.5,58.1,29.64,WNW,283,0.0,0.0,95,0.00,,---,0.00,VWS V14.01,2013-06-02 04:21:00,
2013-06-02 00:26:00,59.5,58.1,29.64,WNW,283,0.0,0.0,95,0.00,,---,0.00,VWS V14.01,2013-06-02 04:26:00,
2013-06-02 00:32:00,59.5,58.1,29.64,WNW,283,0.0,0.0,95,0.00,,---,0.00,VWS V14.01,2013-06-02 04:32:00,
2013-06-02 00:37:00,59.6,58.2,29.64,NNW,331,0.0,0.0,95,0.00,,---,0.00,VWS V14.01,2013-06-02 04:37:00,
2013-06-02 00:42:00,59.6,58.2,29.65,NNW,331,0.0,0.0,95,0.00,,---,0.00,VWS V14.01,2013-06-02 04:42:00,
2013-06-02 00:47:00,59.6,58.5,29.65,NNW,331,0.0,0.0,96,0.00,,---,0.00,VWS V14.01,2013-06-02 04:47:00,
2013-06-02 00:52:00,59.6,58.5,29.65,West,265,0.0,0.0,96,0.00,,---,0.00,VWS V14.01,2013-06-02 04:52:00,
2013-06-02 00:57:00,59.5,58.4,29.66,West,267,0.0,0.0,96,0.00,,---,0.00,VWS V14.01,2013-06-02 04:57:00,
2013-06-02 01:02:00,59.3,58.2,29.65,SW,217,0.0,0.0,96,0.00,,---,0.00,VWS V14.01,2013-06-02 05:02:00,
2013-06-02 01:07:00,59.3,58.2,29.65,SW,217,0.0,0.0,96,0.00,,---,0.00,VWS V14.01,2013-06-02 05:07:00,
2013-06-02 01:12:00,59.3,58.2,29.66,SW,217,0.0,0.0,96,0.00,,---,0.00,VWS V14.01,2013-06-02 05:12:00,
2013-06-02 01:17:00,59.2,58.1,29.65,SW,219,0.0,0.0,96,0.00,,---,0.00,VWS V14.01,2013-06-02 05:17:00,
2013-06-02 01:22:00,59.2,58.1,29.64,SW,219,0.0,0.0,96,0.00,,---,0.00,VWS V14.01,2013-06-02 05:22:00,
2013-06-02 01:27:00,59.2,58.1,29.64,SW,219,0.0,0.0,96,0.00,,---,0.00,VWS V14.01,2013-06-02 05:27:00,
2013-06-02 01:32:00,59.2,58.1,29.64,SW,219,0.0,0.0,96,0.00,,---,0.00,VWS V14.01,2013-06-02 05:32:00,
2013-06-02 01:37:00,59.2,58.1,29.64,SW,219,0.0,0.0,96,0.00,,---,0.00,VWS V14.01,2013-06-02 05:37:00,
2013-06-02 01:42:00,59.2,58.1,29.64,SW,219,0.0,0.0,96,0.00,,---,0.00,VWS V14.01,2013-06-02 05:42:00,
2013-06-02 01:47:00,59.0,57.9,29.64,SW,219,0.0,0.0,96,0.00,,---,0.00,VWS V14.01,2013-06-02 05:47:00,
2013-06-02 01:52:00,59.0,57.9,29.63,SW,219,0.0,0.0,96,0.00,,---,0.00,VWS V14.01,2013-06-02 05:52:00,
2013-06-02 01:57:00,59.0,57.9,29.64,SW,219,0.0,0.0,96,0.00,,---,0.00,VWS V14.01,2013-06-02 05:57:00,
2013-06-02 02:02:00,59.0,57.9,29.64,SSW,200,0.0,0.0,96,0.00,,---,0.00,VWS V14.01,2013-06-02 06:02:00,
2013-06-02 02:07:00,59.0,57.9,29.64,South,186,0.0,0.0,96,0.00,,---,0.00,VWS V14.01,2013-06-02 06:07:00,
2013-06-02 02:12:00,59.0,57.9,29.64,South,187,0.0,0.0,96,0.00,,---,0.00,VWS V14.01,2013-06-02 06:12:00,
2013-06-02 02:17:00,59.0,57.9,29.63,South,187,0.0,0.0,96,0.00,,---,0.00,VWS V14.01,2013-06-02 06:17:00,
2013-06-02 02:22:00,59.0,57.9,29.62,South,187,0.0,0.0,96,0.00,,---,0.00,VWS V14.01,2013-06-02 06:22:00,
2013-06-02 02:27:00,59.0,57.9,29.62,South,187,0.0,0.0,96,0.00,,---,0.00,VWS V14.01,2013-06-02 06:27:00,
2013-06-02 02:32:00,59.0,57.9,29.62,South,187,0.0,0.0,96,0.00,,---,0.00,VWS V14.01,2013-06-02 06:32:00,
2013-06-02 02:37:00,59.0,57.9,29.62,South,187,0.0,0.0,96,0.00,,---,0.00,VWS V14.01,2013-06-02 06:37:00,
2013-06-02 02:42:00,59.0,58.2,29.62,South,187,0.0,0.0,97,0.00,,---,0.00,VWS V14.01,2013-06-02 06:42:00,
2013-06-02 02:47:00,58.9,58.0,29.62,South,187,0.0,0.0,97,0.00,,---,0.00,VWS V14.01,2013-06-02 06:47:00,
2013-06-02 02:52:00,58.9,58.0,29.62,South,187,0.0,0.0,97,0.00,,---,0.00,VWS V14.01,2013-06-02 06:52:00,
2013-06-02 02:57:00,58.9,58.0,29.61,South,187,0.0,0.0,97,0.00,,---,0.00,VWS V14.01,2013-06-02 06:57:00,
2013-06-02 03:02:00,58.9,58.0,29.61,South,187,0.0,0.0,97,0.00,,---,0.00,VWS V14.01,2013-06-02 07:02:00,
2013-06-02 03:07:00,58.9,58.0,29.60,South,187,0.0,0.0,97,0.00,,---,0.00,VWS V14.01,2013-06-02 07:07:00,
2013-06-02 03:12:00,58.9,58.0,29.60,South,187,0.0,0.0,97,0.00,,---,0.00,VWS V14.01,2013-06-02 07:12:00,
2013-06-02 03:18:00,58.9,58.0,29.60,South,187,0.0,0.0,97,0.00,,---,0.00,VWS V14.01,2013-06-02 07:18:00,
2013-06-02 03:23:00,58.6,57.8,29.60,North,5,0.0,0.0,97,0.00,,---,0.00,VWS V14.01,2013-06-02 07:23:00,
2013-06-02 03:28:00,57.8,56.7,29.60,NNE,24,0.0,0.0,96,0.00,,---,0.00,VWS V14.01,2013-06-02 07:28:00,
2013-06-02 03:33:00,57.0,55.9,29.60,North,9,0.0,0.0,96,0.00,,---,0.00,VWS V14.01,2013-06-02 07:33:00,
2013-06-02 03:38:00,56.2,55.1,29.59,NNE,16,0.0,0.0,96,0.00,,---,0.00,VWS V14.01,2013-06-02 07:38:00,
2013-06-02 03:43:00,55.6,54.5,29.59,North,11,0.0,0.0,96,0.00,,---,0.00,VWS V14.01,2013-06-02 07:43:00,
2013-06-02 03:48:00,55.3,54.2,29.60,NNW,328,0.0,0.0,96,0.00,,---,0.00,VWS V14.01,2013-06-02 07:48:00,
2013-06-02 03:53:00,55.1,54.0,29.62,NNE,25,0.0,0.0,96,0.00,,---,0.00,VWS V14.01,2013-06-02 07:53:00,
2013-06-02 03:58:00,55.0,54.2,29.62,NE,49,0.0,0.0,97,0.00,,---,0.00,VWS V14.01,2013-06-02 07:58:00,
2013-06-02 04:03:00,54.5,53.4,29.62,West,265,0.0,0.0,96,0.00,,---,0.00,VWS V14.01,2013-06-02 08:03:00,
2013-06-02 04:08:00,53.6,52.5,29.62,WSW,250,0.0,0.0,96,0.00,,---,0.00,VWS V14.01,2013-06-02 08:08:00,
2013-06-02 04:13:00,52.6,51.2,29.63,NE,38,0.0,0.0,95,0.00,,---,0.00,VWS V14.01,2013-06-02 08:13:00,
2013-06-02 04:18:00,51.9,50.5,29.63,North,351,0.0,0.0,95,0.00,,---,0.00,VWS V14.01,2013-06-02 08:18:00,
2013-06-02 04:23:00,51.3,50.2,29.63,North,355,0.0,0.0,96,0.00,,---,0.00,VWS V14.01,2013-06-02 08:23:00,
2013-06-02 04:28:00,51.0,49.9,29.64,NE,34,0.0,0.0,96,0.00,,---,0.00,VWS V14.01,2013-06-02 08:28:00,
2013-06-02 04:33:00,50.5,49.4,29.64,North,355,0.0,0.0,96,0.00,,---,0.00,VWS V14.01,2013-06-02 08:33:00,
2013-06-02 04:38:00,50.1,49.0,29.64,NW,306,0.0,0.0,96,0.00,,---,0.00,VWS V14.01,2013-06-02 08:38:00,
2013-06-02 04:43:00,49.6,48.5,29.64,NNE,24,0.0,0.0,96,0.00,,---,0.00,VWS V14.01,2013-06-02 08:43:00,
2013-06-02 04:48:00,49.1,48.0,29.65,NNE,17,0.0,0.0,96,0.00,,---,0.00,VWS V14.01,2013-06-02 08:48:00,
2013-06-02 04:53:00,48.6,47.5,29.65,NE,47,0.0,0.0,96,0.00,,---,0.00,VWS V14.01,2013-06-02 08:53:00,
2013-06-02 04:58:00,48.3,47.2,29.65,NNE,22,0.0,0.0,96,0.00,,---,0.00,VWS V14.01,2013-06-02 08:58:00,
2013-06-02 05:03:00,48.0,46.9,29.66,North,349,0.0,0.0,96,0.00,,---,0.00,VWS V14.01,2013-06-02 09:03:00,
2013-06-02 05:08:00,47.9,46.8,29.66,North,350,0.0,0.0,96,0.00,,---,0.00,VWS V14.01,2013-06-02 09:08:00,
2013-06-02 05:13:00,47.3,46.2,29.66,North,355,0.0,0.0,96,0.00,,---,0.00,VWS V14.01,2013-06-02 09:13:00,
2013-06-02 05:18:00,46.5,45.4,29.66,NNW,348,0.0,0.0,96,0.00,,---,0.00,VWS V14.01,2013-06-02 09:18:00,
2013-06-02 05:23:00,46.2,45.1,29.66,North,355,0.0,0.0,96,0.00,,---,0.00,VWS V14.01,2013-06-02 09:23:00,
2013-06-02 05:28:00,46.0,44.9,29.66,NNE,12,0.0,0.0,96,0.00,,---,0.00,VWS V14.01,2013-06-02 09:28:00,
2013-06-02 05:33:00,45.5,44.4,29.66,North,360,0.0,0.0,96,0.00,,---,0.00,VWS V14.01,2013-06-02 09:33:00,
2013-06-02 05:38:00,45.4,44.3,29.67,NE,42,0.0,0.0,96,0.00,,---,0.00,VWS V14.01,2013-06-02 09:38:00,
2013-06-02 05:43:00,45.2,44.1,29.67,North,11,0.0,0.0,96,0.00,,---,0.00,VWS V14.01,2013-06-02 09:43:00,
2013-06-02 05:48:00,45.2,44.1,29.67,NNE,17,0.0,0.0,96,0.00,,---,0.00,VWS V14.01,2013-06-02 09:48:00,
2013-06-02 05:53:00,45.2,44.1,29.67,NE,39,0.0,0.0,96,0.00,,---,0.00,VWS V14.01,2013-06-02 09:53:00,
2013-06-02 05:58:00,45.2,44.1,29.67,NNW,332,0.0,0.0,96,0.00,,---,0.00,VWS V14.01,2013-06-02 09:58:00,
2013-06-02 06:03:00,45.2,44.1,29.67,NNE,18,0.0,0.0,96,0.00,,---,0.00,VWS V14.01,2013-06-02 10:03:00,
2013-06-02 06:08:00,45.1,44.0,29.68,NW,317,0.0,0.0,96,0.00,,---,0.00,VWS V14.01,2013-06-02 10:08:00,
2013-06-02 06:14:00,44.9,43.8,29.68,NW,324,0.0,0.0,96,0.00,,---,0.00,VWS V14.01,2013-06-02 10:14:00,
2013-06-02 06:19:00,44.8,43.7,29.68,NNW,347,0.0,0.0,96,0.00,,---,0.00,VWS V14.01,2013-06-02 10:19:00,
2013-06-02 06:24:00,44.9,43.8,29.68,NNW,339,0.0,0.0,96,0.00,,---,0.00,VWS V14.01,2013-06-02 10:24:00,
2013-06-02 06:29:00,44.9,43.8,29.69,North,5,0.0,0.0,96,0.00,,---,0.00,VWS V14.01,2013-06-02 10:29:00,
2013-06-02 06:34:00,44.9,43.8,29.69,NNW,329,0.0,0.0,96,0.00,,---,0.00,VWS V14.01,2013-06-02 10:34:00,
2013-06-02 06:39:00,44.8,43.7,29.69,North,355,0.0,0.0,96,0.00,,---,0.00,VWS V14.01,2013-06-02 10:39:00,
2013-06-02 06:44:00,44.9,43.8,29.69,North,355,0.0,0.0,96,0.00,,---,0.00,VWS V14.01,2013-06-02 10:44:00,
2013-06-02 06:49:00,44.9,43.8,29.70,West,273,0.0,0.0,96,0.00,,---,0.00,VWS V14.01,2013-06-02 10:49:00,
2013-06-02 06:54:00,44.9,43.8,29.70,NNW,339,0.0,0.0,96,0.00,,---,0.00,VWS V14.01,2013-06-02 10:54:00,
2013-06-02 06:59:00,44.9,43.8,29.70,NNE,21,0.0,0.0,96,0.00,,---,0.00,VWS V14.01,2013-06-02 10:59:00,
2013-06-02 07:04:00,44.8,43.7,29.70,NW,317,0.0,0.0,96,0.00,,---,0.00,VWS V14.01,2013-06-02 11:04:00,
2013-06-02 07:09:00,44.8,43.7,29.71,NW,309,0.0,0.0,96,0.00,,---,0.00,VWS V14.01,2013-06-02 11:09:00,
2013-06-02 07:14:00,44.6,43.5,29.71,NW,325,0.0,0.0,96,0.00,,---,0.00,VWS V14.01,2013-06-02 11:14:00,
2013-06-02 07:19:00,44.6,43.5,29.71,NNE,33,0.0,0.0,96,0.00,,---,0.00,VWS V14.01,2013-06-02 11:19:00,
2013-06-02 07:24:00,44.6,43.5,29.71,North,355,0.0,0.0,96,0.00,,---,0.00,VWS V14.01,2013-06-02 11:24:00,
2013-06-02 07:29:00,44.6,43.5,29.71,NNW,333,0.0,0.0,96,0.00,,---,0.00,VWS V14.01,2013-06-02 11:29:00,
2013-06-02 07:34:00,44.6,43.5,29.71,NNW,347,0.0,0.0,96,0.00,,---,0.00,VWS V14.01,2013-06-02 11:34:00,
2013-06-02 07:39:00,44.6,43.5,29.72,NNE,32,0.0,0.0,96,0.00,,---,0.00,VWS V14.01,2013-06-02 11:39:00,
2013-06-02 07:44:00,44.5,43.4,29.72,WNW,290,0.0,0.0,96,0.00,,---,0.00,VWS V14.01,2013-06-02 11:44:00,
2013-06-02 07:49:00,44.3,43.2,29.73,NW,317,0.0,0.0,96,0.00,,---,0.00,VWS V14.01,2013-06-02 11:49:00,
2013-06-02 07:54:00,44.2,43.1,29.73,WSW,253,0.0,0.0,96,0.00,,---,0.00,VWS V14.01,2013-06-02 11:54:00,
2013-06-02 07:59:00,44.1,43.0,29.73,NNW,346,0.0,0.0,96,0.00,,---,0.00,VWS V14.01,2013-06-02 11:59:00,
2013-06-02 08:04:00,44.1,43.0,29.74,West,276,0.0,0.0,96,0.00,,---,0.00,VWS V14.01,2013-06-02 12:04:00,
2013-06-02 08:09:00,43.9,42.8,29.74,WNW,286,0.0,0.0,96,0.00,,---,0.00,VWS V14.01,2013-06-02 12:09:00,
2013-06-02 08:14:00,43.9,42.8,29.74,WNW,294,0.0,0.0,96,0.00,,---,0.00,VWS V14.01,2013-06-02 12:14:00,
2013-06-02 08:19:00,43.8,43.0,29.75,NW,324,0.0,0.0,97,0.00,,---,0.00,VWS V14.01,2013-06-02 12:19:00,
2013-06-02 08:24:00,43.8,43.0,29.75,NNE,13,0.0,0.0,97,0.00,,---,0.00,VWS V14.01,2013-06-02 12:24:00,
2013-06-02 08:29:00,43.8,43.0,29.76,North,5,0.0,0.0,97,0.00,,---,0.00,VWS V14.01,2013-06-02 12:29:00,
2013-06-02 08:34:00,43.8,43.0,29.76,South,188,0.0,0.0,97,0.00,,---,0.00,VWS V14.01,2013-06-02 12:34:00,
2013-06-02 08:39:00,43.8,43.0,29.77,WNW,298,0.0,0.0,97,0.00,,---,0.00,VWS V14.01,2013-06-02 12:39:00,
2013-06-02 08:44:00,43.8,42.7,29.77,NW,321,0.0,0.0,96,0.00,,---,0.00,VWS V14.01,2013-06-02 12:44:00,
2013-06-02 08:49:00,43.6,42.5,29.77,NW,325,0.0,0.0,96,0.00,,---,0.00,VWS V14.01,2013-06-02 12:49:00,
2013-06-02 08:54:00,43.8,42.7,29.77,NNW,334,0.0,0.0,96,0.00,,---,0.00,VWS V14.01,2013-06-02 12:54:00,
2013-06-02 08:59:00,43.8,42.7,29.77,NW,317,0.0,0.0,96,0.00,,---,0.00,VWS V14.01,2013-06-02 12:59:00,
2013-06-02 09:05:00,43.8,42.7,29.78,NNW,342,0.0,0.0,96,0.00,,---,0.00,VWS V14.01,2013-06-02 13:05:00,
2013-06-02 09:10:00,43.8,42.7,29.78,NNE,33,0.0,0.0,96,0.00,,---,0.00,VWS V14.01,2013-06-02 13:10:00,
2013-06-02 09:15:00,43.8,42.7,29.78,West,280,0.0,0.0,96,0.00,,---,0.00,VWS V14.01,2013-06-02 13:15:00,
2013-06-02 09:20:00,43.6,42.5,29.78,NW,311,0.0,0.0,96,0.00,,---,0.00,VWS V14.01,2013-06-02 13:20:00,
2013-06-02 09:25:00,43.8,42.7,29.78,North,5,0.0,0.0,96,0.00,,---,0.00,VWS V14.01,2013-06-02 13:25:00,
2013-06-02 09:30:00,43.8,42.7,29.79,NNW,345,0.0,0.0,96,0.00,,---,0.00,VWS V14.01,2013-06-02 13:30:00,
2013-06-02 09:35:00,43.8,42.7,29.79,North,360,0.0,0.0,96,0.00,,---,0.00,VWS V14.01,2013-06-02 13:35:00,
2013-06-02 09:40:00,43.8,42.7,29.79,NNW,338,0.0,0.0,96,0.00,,---,0.00,VWS V14.01,2013-06-02 13:40:00,
2013-06-02 09:45:00,43.8,42.7,29.80,North,355,0.0,0.0,96,0.00,,---,0.00,VWS V14.01,2013-06-02 13:45:00,
2013-06-02 09:50:00,43.6,42.5,29.80,NE,40,0.0,0.0,96,0.00,,---,0.00,VWS V14.01,2013-06-02 13:50:00,
2013-06-02 09:55:00,43.8,42.5,29.80,WNW,302,0.0,0.0,95,0.00,,---,0.00,VWS V14.01,2013-06-02 13:55:00,
2013-06-02 10:00:00,43.8,42.7,29.80,NNW,331,0.0,0.0,96,0.00,,---,0.00,VWS V14.01,2013-06-02 14:00:00,
2013-06-02 10:05:00,43.8,42.5,29.81,North,5,0.0,0.0,95,0.00,,---,0.00,VWS V14.01,2013-06-02 14:05:00,
2013-06-02 10:10:00,43.6,42.3,29.81,ESE,104,0.0,0.0,95,0.00,,---,0.00,VWS V14.01,2013-06-02 14:10:00,
2013-06-02 10:15:00,43.3,42.0,29.81,WNW,285,0.0,0.0,95,0.00,,---,0.00,VWS V14.01,2013-06-02 14:15:00,
2013-06-02 10:20:00,43.3,42.0,29.82,NNW,348,0.0,0.0,95,0.00,,---,0.00,VWS V14.01,2013-06-02 14:20:00,
2013-06-02 10:25:00,43.3,42.0,29.82,NNE,22,0.0,0.0,95,0.00,,---,0.00,VWS V14.01,2013-06-02 14:25:00,
2013-06-02 10:30:00,43.1,41.8,29.82,WNW,302,0.0,0.0,95,0.00,,---,0.00,VWS V14.01,2013-06-02 14:30:00,
2013-06-02 10:35:00,43.1,41.8,29.82,NNE,28,0.0,0.0,95,0.00,,---,0.00,VWS V14.01,2013-06-02 14:35:00,
2013-06-02 10:40:00,43.2,41.9,29.82,North,349,0.0,0.0,95,0.00,,---,0.00,VWS V14.01,2013-06-02 14:40:00,
2013-06-02 10:45:00,43.2,41.9,29.83,North,5,0.0,0.0,95,0.00,,---,0.00,VWS V14.01,2013-06-02 14:45:00,
2013-06-02 10:50:00,43.2,41.9,29.83,NW,304,0.0,0.0,95,0.00,,---,0.00,VWS V14.01,2013-06-02 14:50:00,
2013-06-02 10:55:00,43.2,41.9,29.83,NW,306,0.0,0.0,95,0.00,,---,0.00,VWS V14.01,2013-06-02 14:55:00,
2013-06-02 11:00:00,43.2,41.9,29.84,NNW,342,0.0,0.0,95,0.00,,---,0.00,VWS V14.01,2013-06-02 15:00:00,
2013-06-02 11:05:00,43.2,41.6,29.84,North,10,0.0,0.0,94,0.00,,---,0.00,VWS V14.01,2013-06-02 15:05:00,
2013-06-02 11:10:00,43.2,41.6,29.84,NW,313,0.0,0.0,94,0.00,,---,0.00,VWS V14.01,2013-06-02 15:10:00,
2013-06-02 11:15:00,43.2,41.6,29.85,West,269,0.0,0.0,94,0.00,,---,0.00,VWS V14.01,2013-06-02 15:15:00,
2013-06-02 11:20:00,43.2,41.6,29.85,West,272,0.0,0.0,94,0.00,,---,0.00,VWS V14.01,2013-06-02 15:20:00,
2013-06-02 11:25:00,43.3,41.7,29.85,NW,319,0.0,0.0,94,0.00,,---,0.00,VWS V14.01,2013-06-02 15:25:00,
2013-06-02 11:30:00,43.2,41.3,29.86,North,355,0.0,0.0,93,0.00,,---,0.00,VWS V14.01,2013-06-02 15:30:00,
2013-06-02 11:35:00,43.3,41.4,29.86,North,5,0.0,0.0,93,0.00,,---,0.00,VWS V14.01,2013-06-02 15:35:00,
2013-06-02 11:40:00,43.5,41.6,29.86,NW,317,0.0,0.0,93,0.00,,---,0.00,VWS V14.01,2013-06-02 15:40:00,
2013-06-02 11:45:00,43.6,41.7,29.87,WNW,286,0.0,0.0,93,0.00,,---,0.00,VWS V14.01,2013-06-02 15:45:00,
2013-06-02 11:51:00,43.8,41.6,29.87,WNW,293,0.0,0.0,92,0.00,,---,0.00,VWS V14.01,2013-06-02 15:51:00,
2013-06-02 11:56:00,43.9,41.7,29.87,NW,323,0.0,0.0,92,0.00,,---,0.00,VWS V14.01,2013-06-02 15:56:00,
2013-06-02 12:01:00,44.1,41.7,29.88,ENE,67,0.0,0.0,91,0.00,,---,0.00,VWS V14.01,2013-06-02 16:01:00,
2013-06-02 12:06:00,44.2,41.7,29.88,NNE,17,0.0,0.0,91,0.00,,---,0.00,VWS V14.01,2013-06-02 16:06:00,
2013-06-02 12:11:00,44.3,41.6,29.88,North,360,0.0,0.0,90,0.00,,---,0.00,VWS V14.01,2013-06-02 16:11:00,
2013-06-02 12:16:00,44.5,41.8,29.88,North,355,0.0,0.0,90,0.00,,---,0.00,VWS V14.01,2013-06-02 16:16:00,
2013-06-02 12:21:00,44.6,41.6,29.88,NNE,15,0.0,0.0,89,0.00,,---,0.00,VWS V14.01,2013-06-02 16:21:00,
2013-06-02 12:26:00,44.5,41.2,29.89,North,360,0.0,0.0,88,0.00,,---,0.00,VWS V14.01,2013-06-02 16:26:00,
2013-06-02 12:31:00,44.6,41.3,29.89,North,5,0.0,0.0,88,0.00,,---,0.00,VWS V14.01,2013-06-02 16:31:00,
2013-06-02 12:36:00,44.8,41.2,29.89,NNE,30,0.0,0.0,87,0.00,,---,0.00,VWS V14.01,2013-06-02 16:36:00,
2013-06-02 12:41:00,44.8,41.2,29.89,NW,312,0.0,0.0,87,0.00,,---,0.00,VWS V14.01,2013-06-02 16:41:00,
2013-06-02 12:46:00,44.8,41.2,29.89,North,9,0.0,0.0,87,0.00,,---,0.00,VWS V14.01,2013-06-02 16:46:00,
2013-06-02 12:51:00,44.9,41.0,29.90,NNW,342,0.0,0.0,86,0.00,,---,0.00,VWS V14.01,2013-06-02 16:51:00,
2013-06-02 12:56:00,44.9,41.0,29.90,NW,315,0.0,0.0,86,0.00,,---,0.00,VWS V14.01,2013-06-02 16:56:00,
2013-06-02 13:01:00,44.9,41.0,29.90,WNW,294,0.0,0.0,86,0.00,,---,0.00,VWS V14.01,2013-06-02 17:01:00,
2013-06-02 13:06:00,44.9,41.0,29.90,North,355,0.0,0.0,86,0.00,,---,0.00,VWS V14.01,2013-06-02 17:06:00,
2013-06-02 13:11:00,45.2,41.6,29.90,NNE,15,0.0,0.0,87,0.00,,---,0.00,VWS V14.01,2013-06-02 17:11:00,
2013-06-02 13:16:00,45.4,41.5,29.90,NNW,330,0.0,0.0,86,0.00,,---,0.00,VWS V14.01,2013-06-02 17:16:00,
2013-06-02 13:21:00,45.5,41.3,29.90,NNE,19,0.0,0.0,85,0.00,,---,0.00,VWS V14.01,2013-06-02 17:21:00,
2013-06-02 13:27:00,45.5,41.0,29.90,NE,34,0.0,0.0,84,0.00,,---,0.00,VWS V14.01,2013-06-02 17:27:00,
2013-06-02 13:32:00,45.5,41.6,29.90,NNE,30,0.0,0.0,86,0.00,,---,0.00,VWS V14.01,2013-06-02 17:32:00,
2013-06-02 13:37:00,45.4,40.2,29.91,North,360,0.0,0.0,82,0.00,,---,0.00,VWS V14.01,2013-06-02 17:37:00,
2013-06-02 13:42:00,45.7,41.5,29.91,North,5,0.0,0.0,85,0.00,,---,0.00,VWS V14.01,2013-06-02 17:42:00,
2013-06-02 13:47:00,45.8,40.9,29.91,NW,320,0.0,0.0,83,0.00,,---,0.00,VWS V14.01,2013-06-02 17:47:00,
2013-06-02 13:52:00,45.7,40.8,29.91,North,355,0.0,0.0,83,0.00,,---,0.00,VWS V14.01,2013-06-02 17:52:00,
2013-06-02 13:57:00,46.0,41.1,29.92,NW,308,0.0,0.0,83,0.00,,---,0.00,VWS V14.01,2013-06-02 17:57:00,
2013-06-02 14:02:00,46.2,41.0,29.92,NNW,344,0.0,0.0,82,0.00,,---,0.00,VWS V14.01,2013-06-02 18:02:00,
2013-06-02 14:07:00,46.4,41.2,29.92,NNE,19,0.0,0.0,82,0.00,,---,0.00,VWS V14.01,2013-06-02 18:07:00,
2013-06-02 14:12:00,46.4,41.2,29.92,NW,311,0.0,0.0,82,0.00,,---,0.00,VWS V14.01,2013-06-02 18:12:00,
2013-06-02 14:17:00,46.2,40.4,29.93,NNE,19,0.0,0.0,80,0.00,,---,0.00,VWS V14.01,2013-06-02 18:17:00,
2013-06-02 14:22:00,46.2,40.7,29.93,ENE,57,0.0,0.0,81,0.00,,---,0.00,VWS V14.01,2013-06-02 18:22:00,
2013-06-02 14:27:00,46.2,41.0,29.93,NNE,22,0.0,0.0,82,0.00,,---,0.00,VWS V14.01,2013-06-02 18:27:00,
2013-06-02 14:32:00,46.5,41.0,29.94,WNW,286,0.0,0.0,81,0.00,,---,0.00,VWS V14.01,2013-06-02 18:32:00,
2013-06-02 14:37:00,46.5,41.3,29.94,NNW,346,0.0,0.0,82,0.00,,---,0.00,VWS V14.01,2013-06-02 18:37:00,
2013-06-02 14:42:00,46.5,41.0,29.94,NW,315,0.0,0.0,81,0.00,,---,0.00,VWS V14.01,2013-06-02 18:42:00,
2013-06-02 14:47:00,46.7,41.5,29.94,North,355,0.0,0.0,82,0.00,,---,0.00,VWS V14.01,2013-06-02 18:47:00,
2013-06-02 14:52:00,46.7,41.2,29.95,North,355,0.0,0.0,81,0.00,,---,0.00,VWS V14.01,2013-06-02 18:52:00,
2013-06-02 14:57:00,46.8,41.3,29.95,NNW,347,0.0,0.0,81,0.00,,---,0.00,VWS V14.01,2013-06-02 18:57:00,
2013-06-02 15:02:00,46.7,40.9,29.95,NNW,346,0.0,0.0,80,0.00,,---,0.00,VWS V14.01,2013-06-02 19:02:00,
2013-06-02 15:07:00,46.8,41.6,29.96,NW,306,0.0,0.0,82,0.00,,---,0.00,VWS V14.01,2013-06-02 19:07:00,
2013-06-02 15:12:00,47.0,41.2,29.96,NW,309,0.0,0.0,80,0.00,,---,0.00,VWS V14.01,2013-06-02 19:12:00,
2013-06-02 15:17:00,46.8,40.3,29.96,NW,306,0.0,0.0,78,0.00,,---,0.00,VWS V14.01,2013-06-02 19:17:00,
2013-06-02 15:22:00,46.8,40.6,29.97,NW,309,0.0,0.0,79,0.00,,---,0.00,VWS V14.01,2013-06-02 19:22:00,
2013-06-02 15:27:00,46.8,40.6,29.97,WNW,288,0.0,0.0,79,0.00,,---,0.00,VWS V14.01,2013-06-02 19:27:00,
2013-06-02 15:32:00,46.8,40.6,29.97,NNE,28,0.0,0.0,79,0.00,,---,0.00,VWS V14.01,2013-06-02 19:32:00,
2013-06-02 15:37:00,46.7,40.9,29.97,NW,313,0.0,0.0,80,0.00,,---,0.00,VWS V14.01,2013-06-02 19:37:00,
2013-06-02 15:42:00,46.7,40.2,29.97,NNE,31,0.0,0.0,78,0.00,,---,0.00,VWS V14.01,2013-06-02 19:42:00,
2013-06-02 15:47:00,46.8,40.6,29.97,NNW,346,0.0,0.0,79,0.00,,---,0.00,VWS V14.01,2013-06-02 19:47:00,
2013-06-02 15:52:00,47.0,40.8,29.97,NW,308,0.0,0.0,79,0.00,,---,0.00,VWS V14.01,2013-06-02 19:52:00,
2013-06-02 15:57:00,47.1,40.3,29.97,NNE,20,0.0,0.0,77,0.00,,---,0.00,VWS V14.01,2013-06-02 19:57:00,
2013-06-02 16:02:00,47.3,40.5,29.97,NE,34,0.0,0.0,77,0.00,,---,0.00,VWS V14.01,2013-06-02 20:02:00,
2013-06-02 16:07:00,47.4,40.2,29.97,NE,36,0.0,0.0,76,0.00,,---,0.00,VWS V14.01,2013-06-02 20:07:00,
2013-06-02 16:12:00,47.6,40.4,29.98,NNE,28,0.0,0.0,76,0.00,,---,0.00,VWS V14.01,2013-06-02 20:12:00,
2013-06-02 16:17:00,47.4,39.9,29.97,North,9,0.0,0.0,75,0.00,,---,0.00,VWS V14.01,2013-06-02 20:17:00,
2013-06-02 16:22:00,47.4,40.9,29.97,NE,49,0.0,0.0,78,0.00,,---,0.00,VWS V14.01,2013-06-02 20:22:00,
2013-06-02 16:28:00,47.9,41.0,29.97,NNE,21,0.0,0.0,77,0.00,,---,0.00,VWS V14.01,2013-06-02 20:28:00,
2013-06-02 16:32:00,47.9,40.7,29.97,West,281,0.0,0.0,76,0.00,,---,0.00,VWS V14.01,2013-06-02 20:32:00,
2013-06-02 16:37:00,48.0,40.1,29.98,NNE,15,0.0,0.0,74,0.00,,---,0.00,VWS V14.01,2013-06-02 20:37:00,
2013-06-02 16:42:00,48.2,40.7,29.98,North,355,0.0,0.0,75,0.00,,---,0.00,VWS V14.01,2013-06-02 20:42:00,
2013-06-02 16:48:00,48.6,40.3,29.98,NNE,19,0.0,0.0,73,0.00,,---,0.00,VWS V14.01,2013-06-02 20:48:00,
2013-06-02 16:53:00,48.8,40.9,29.98,NNE,32,0.0,0.0,74,0.00,,---,0.00,VWS V14.01,2013-06-02 20:53:00,
2013-06-02 16:58:00,48.8,40.2,29.98,North,360,0.0,0.0,72,0.00,,---,0.00,VWS V14.01,2013-06-02 20:58:00,
2013-06-02 17:03:00,48.5,39.5,29.98,NE,46,0.0,0.0,71,0.00,,---,0.00,VWS V14.01,2013-06-02 21:03:00,
2013-06-02 17:08:00,48.6,40.3,29.98,NNE,28,0.0,0.0,73,0.00,,---,0.00,VWS V14.01,2013-06-02 21:08:00,
2013-06-02 17:13:00,48.6,40.0,29.98,NNW,346,0.0,0.0,72,0.00,,---,0.00,VWS V14.01,2013-06-02 21:13:00,
2013-06-02 17:18:00,48.8,39.8,29.98,NNE,28,0.0,0.0,71,0.00,,---,0.00,VWS V14.01,2013-06-02 21:18:00,
2013-06-02 17:23:00,48.8,40.2,29.99,East,82,0.0,0.0,72,0.00,,---,0.00,VWS V14.01,2013-06-02 21:23:00,
2013-06-02 17:28:00,48.8,39.5,29.99,NNE,28,0.0,0.0,70,0.00,,---,0.00,VWS V14.01,2013-06-02 21:28:00,
2013-06-02 17:33:00,48.6,39.6,29.99,WNW,296,0.0,0.0,71,0.00,,---,0.00,VWS V14.01,2013-06-02 21:33:00,
2013-06-02 17:38:00,48.2,39.2,29.99,NNE,17,0.0,0.0,71,0.00,,---,0.00,VWS V14.01,2013-06-02 21:38:00,
2013-06-02 17:43:00,47.9,39.0,30.00,North,5,0.0,0.0,71,0.00,,---,0.00,VWS V14.01,2013-06-02 21:43:00,
2013-06-02 17:48:00,47.4,38.5,30.00,NNE,19,0.0,0.0,71,0.00,,---,0.00,VWS V14.01,2013-06-02 21:48:00,
2013-06-02 17:53:00,47.4,38.5,30.00,NNW,328,0.0,0.0,71,0.00,,---,0.00,VWS V14.01,2013-06-02 21:53:00,
2013-06-02 17:58:00,47.4,38.8,30.00,NNE,27,0.0,0.0,72,0.00,,---,0.00,VWS V14.01,2013-06-02 21:58:00,
2013-06-02 18:03:00,47.4,38.8,30.00,NNE,19,0.0,0.0,72,0.00,,---,0.00,VWS V14.01,2013-06-02 22:03:00,
2013-06-02 18:08:00,47.4,38.8,30.00,NNW,331,0.0,0.0,72,0.00,,---,0.00,VWS V14.01,2013-06-02 22:08:00,
2013-06-02 18:13:00,47.3,38.0,30.01,NE,40,0.0,0.0,70,0.00,,---,0.00,VWS V14.01,2013-06-02 22:13:00,
2013-06-02 18:18:00,47.1,38.2,30.01,NE,36,0.0,0.0,71,0.00,,---,0.00,VWS V14.01,2013-06-02 22:18:00,
2013-06-02 18:23:00,47.1,37.8,30.01,North,351,0.0,0.0,70,0.00,,---,0.00,VWS V14.01,2013-06-02 22:23:00,
2013-06-02 18:28:00,47.1,38.2,30.01,North,355,0.0,0.0,71,0.00,,---,0.00,VWS V14.01,2013-06-02 22:28:00,
2013-06-02 18:33:00,47.1,37.8,30.01,North,5,0.0,0.0,70,0.00,,---,0.00,VWS V14.01,2013-06-02 22:33:00,
2013-06-02 18:38:00,47.1,37.5,30.01,North,5,0.0,0.0,69,0.00,,---,0.00,VWS V14.01,2013-06-02 22:38:00,
2013-06-02 18:43:00,47.1,37.8,30.01,East,81,0.0,0.0,70,0.00,,---,0.00,VWS V14.01,2013-06-02 22:43:00,
2013-06-02 18:48:00,47.0,37.7,30.01,North,355,0.0,0.0,70,0.00,,---,0.00,VWS V14.01,2013-06-02 22:48:00,
2013-06-02 18:53:00,47.0,37.4,30.01,NNE,20,0.0,0.0,69,0.00,,---,0.00,VWS V14.01,2013-06-02 22:53:00,
2013-06-02 18:58:00,46.8,37.9,30.01,NW,306,0.0,0.0,71,0.00,,---,0.00,VWS V14.01,2013-06-02 22:58:00,
2013-06-02 19:03:00,47.0,37.7,30.01,NNE,32,0.0,0.0,70,0.00,,---,0.00,VWS V14.01,2013-06-02 23:03:00,
2013-06-02 19:08:00,47.1,37.5,30.01,NNE,18,0.0,0.0,69,0.00,,---,0.00,VWS V14.01,2013-06-02 23:08:00,
2013-06-02 19:13:00,47.1,37.5,30.01,NNE,18,0.0,0.0,69,0.00,,---,0.00,VWS V14.01,2013-06-02 23:13:00,
2013-06-02 19:18:00,47.3,38.4,30.01,NW,326,0.0,0.0,71,0.00,,---,0.00,VWS V14.01,2013-06-02 23:18:00,
2013-06-02 19:24:00,47.4,38.5,30.02,NNW,346,0.0,0.0,71,0.00,,---,0.00,VWS V14.01,2013-06-02 23:24:00,
2013-06-02 19:28:00,47.4,37.8,30.02,North,11,0.0,0.0,69,0.00,,---,0.00,VWS V14.01,2013-06-02 23:28:00,
2013-06-02 19:33:00,47.7,38.4,30.02,NNE,28,0.0,0.0,70,0.00,,---,0.00,VWS V14.01,2013-06-02 23:33:00,
2013-06-02 19:39:00,47.7,37.7,30.02,North,350,0.0,0.0,68,0.00,,---,0.00,VWS V14.01,2013-06-02 23:39:00,
2013-06-02 19:44:00,47.7,37.7,30.02,West,280,0.0,0.0,68,0.00,,---,0.00,VWS V14.01,2013-06-02 23:44:00,
2013-06-02 19:49:00,48.0,37.2,30.03,NNE,21,0.0,0.0,66,0.00,,---,0.00,VWS V14.01,2013-06-02 23:49:00,
2013-06-02 19:54:00,48.0,38.3,30.03,WNW,291,0.0,0.0,69,0.00,,---,0.00,VWS V14.01,2013-06-02 23:54:00,
2013-06-02 19:59:00,47.9,37.9,30.03,NNE,19,0.0,0.0,68,0.00,,---,0.00,VWS V14.01,2013-06-02 23:59:00,
2013-06-02 20:04:00,47.9,37.9,30.03,NNE,24,0.0,0.0,68,0.00,,---,0.00,VWS V14.01,2013-06-03 00:04:00,
2013-06-02 20:09:00,47.9,38.2,30.03,NNW,341,0.0,0.0,69,0.00,,---,0.00,VWS V14.01,2013-06-03 00:09:00,
2013-06-02 20:14:00,47.9,37.5,30.03,NNE,19,0.0,0.0,67,0.00,,---,0.00,VWS V14.01,2013-06-03 00:14:00,
2013-06-02 20:19:00,47.6,37.6,30.03,NNW,344,0.0,0.0,68,0.00,,---,0.00,VWS V14.01,2013-06-03 00:19:00,
2013-06-02 20:24:00,47.3,36.9,30.03,NNE,15,0.0,0.0,67,0.00,,---,0.00,VWS V14.01,2013-06-03 00:24:00,
2013-06-02 20:29:00,47.1,37.5,30.03,NNE,17,0.0,0.0,69,0.00,,---,0.00,VWS V14.01,2013-06-03 00:29:00,
2013-06-02 20:34:00,47.0,37.4,30.03,NNW,336,0.0,0.0,69,0.00,,---,0.00,VWS V14.01,2013-06-03 00:34:00,
2013-06-02 20:39:00,46.8,37.2,30.03,North,351,0.0,0.0,69,0.00,,---,0.00,VWS V14.01,2013-06-03 00:39:00,
2013-06-02 20:44:00,46.5,36.9,30.03,NNW,340,0.0,0.0,69,0.00,,---,0.00,VWS V14.01,2013-06-03 00:44:00,
2013-06-02 20:49:00,46.2,36.6,30.03,NNE,23,0.0,0.0,69,0.00,,---,0.00,VWS V14.01,2013-06-03 00:49:00,
2013-06-02 20:54:00,46.0,37.1,30.03,North,5,0.0,0.0,71,0.00,,---,0.00,VWS V14.01,2013-06-03 00:54:00,
2013-06-02 20:59:00,45.7,36.8,30.03,NNW,337,0.0,0.0,71,0.00,,---,0.00,VWS V14.01,2013-06-03 00:59:00,
2013-06-02 21:04:00,45.5,37.0,30.03,North,5,0.0,0.0,72,0.00,,---,0.00,VWS V14.01,2013-06-03 01:04:00,
2013-06-02 21:09:00,45.2,36.7,30.03,NNW,332,0.0,0.0,72,0.00,,---,0.00,VWS V14.01,2013-06-03 01:09:00,
2013-06-02 21:14:00,45.1,36.6,30.03,NNE,16,0.0,0.0,72,0.00,,---,0.00,VWS V14.01,2013-06-03 01:14:00,
2013-06-02 21:19:00,44.9,36.8,30.03,North,9,0.0,0.0,73,0.00,,---,0.00,VWS V14.01,2013-06-03 01:19:00,
2013-06-02 21:24:00,44.8,37.0,30.03,North,349,0.0,0.0,74,0.00,,---,0.00,VWS V14.01,2013-06-03 01:24:00,
2013-06-02 21:29:00,44.5,36.7,30.03,North,355,0.0,0.0,74,0.00,,---,0.00,VWS V14.01,2013-06-03 01:29:00,
2013-06-02 21:34:00,44.3,36.9,30.03,North,355,0.0,0.0,75,0.00,,---,0.00,VWS V14.01,2013-06-03 01:34:00,
2013-06-02 21:39:00,44.2,36.8,30.03,North,355,0.0,0.0,75,0.00,,---,0.00,VWS V14.01,2013-06-03 01:39:00,
2013-06-02 21:44:00,44.1,37.0,30.04,NNW,328,0.0,0.0,76,0.00,,---,0.00,VWS V14.01,2013-06-03 01:44:00,
2013-06-02 21:49:00,43.9,36.8,30.04,NNW,328,0.0,0.0,76,0.00,,---,0.00,VWS V14.01,2013-06-03 01:49:00,
2013-06-02 21:54:00,43.6,36.9,30.04,NNW,329,0.0,0.0,77,0.00,,---,0.00,VWS V14.01,2013-06-03 01:54:00,
2013-06-02 21:59:00,43.5,37.1,30.04,NNW,328,0.0,0.0,78,0.00,,---,0.00,VWS V14.01,2013-06-03 01:59:00,
2013-06-02 22:04:00,43.3,37.2,30.04,NNW,329,0.0,0.0,79,0.00,,---,0.00,VWS V14.01,2013-06-03 02:04:00,
2013-06-02 22:09:00,43.2,37.1,30.04,NNW,329,0.0,0.0,79,0.00,,---,0.00,VWS V14.01,2013-06-03 02:09:00,
2013-06-02 22:14:00,43.1,37.4,30.04,NNW,328,0.0,0.0,80,0.00,,---,0.00,VWS V14.01,2013-06-03 02:14:00,
2013-06-02 22:19:00,42.8,37.4,30.05,NNW,328,0.0,0.0,81,0.00,,---,0.00,VWS V14.01,2013-06-03 02:19:00,
2013-06-02 22:24:00,42.6,37.5,30.05,NE,34,0.0,0.0,82,0.00,,---,0.00,VWS V14.01,2013-06-03 02:24:00,
2013-06-02 22:29:00,42.3,37.5,30.05,NE,36,0.0,0.0,83,0.00,,---,0.00,VWS V14.01,2013-06-03 02:29:00,
2013-06-02 22:34:00,42.1,37.3,30.05,NE,36,0.0,0.0,83,0.00,,---,0.00,VWS V14.01,2013-06-03 02:34:00,
2013-06-02 22:40:00,41.8,37.3,30.05,NE,36,0.0,0.0,84,0.00,,---,0.00,VWS V14.01,2013-06-03 02:40:00,
2013-06-02 22:45:00,41.6,37.1,30.05,NE,36,0.0,0.0,84,0.00,,---,0.00,VWS V14.01,2013-06-03 02:45:00,
2013-06-02 22:50:00,41.3,37.1,30.05,NE,36,0.0,0.0,85,0.00,,---,0.00,VWS V14.01,2013-06-03 02:50:00,
2013-06-02 22:55:00,41.1,36.9,30.05,NE,36,0.0,0.0,85,0.00,,---,0.00,VWS V14.01,2013-06-03 02:55:00,
2013-06-02 23:01:00,40.9,37.0,30.05,NE,36,0.0,0.0,86,0.00,,---,0.00,VWS V14.01,2013-06-03 03:01:00,
2013-06-02 23:07:00,40.6,36.8,30.05,NE,36,0.0,0.0,86,0.00,,---,0.00,VWS V14.01,2013-06-03 03:07:00,
2013-06-02 23:12:00,40.5,36.9,30.05,NE,36,0.0,0.0,87,0.00,,---,0.00,VWS V14.01,2013-06-03 03:12:00,
2013-06-02 23:17:00,40.2,36.7,30.05,NE,36,0.0,0.0,87,0.00,,---,0.00,VWS V14.01,2013-06-03 03:17:00,
2013-06-02 23:22:00,40.1,36.5,30.05,NE,36,0.0,0.0,87,0.00,,---,0.00,VWS V14.01,2013-06-03 03:22:00,
2013-06-02 23:28:00,39.9,36.6,30.05,NE,36,0.0,0.0,88,0.00,,---,0.00,VWS V14.01,2013-06-03 03:28:00,
2013-06-02 23:33:00,39.8,36.5,30.05,NE,36,0.0,0.0,88,0.00,,---,0.00,VWS V14.01,2013-06-03 03:33:00,
2013-06-02 23:38:00,39.6,36.3,30.05,NE,36,0.0,0.0,88,0.00,,---,0.00,VWS V14.01,2013-06-03 03:38:00,
2013-06-02 23:43:00,39.5,36.2,30.05,NE,36,0.0,0.0,88,0.00,,---,0.00,VWS V14.01,2013-06-03 03:43:00,
2013-06-02 23:48:00,39.5,36.2,30.05,NE,36,0.0,0.0,88,0.00,,---,0.00,VWS V14.01,2013-06-03 03:48:00,
2013-06-02 23:55:00,39.3,36.0,30.05,NE,36,0.0,0.0,88,0.00,,---,0.00,VWS V14.01,2013-06-03 03:55:00,